createdAt,value
2023-05-21T00:01:17.693Z,100197.09
2023-05-21T00:04:14.861Z,100199.29
2023-05-21T00:06:41.005Z,100199.89
2023-05-21T00:09:09.387Z,100200.81
2023-05-21T00:11:53.695Z,100194.86
2023-05-21T00:14:37.034Z,100191.91
2023-05-21T00:17:23.653Z,100193.04
2023-05-21T00:20:08.021Z,100195.76
2023-05-21T00:22:40.454Z,100194.12
2023-05-21T00:25:51.832Z,100192.00
2023-05-21T00:28:20.317Z,100188.85
2023-05-21T00:31:33.788Z,100185.52
2023-05-21T00:37:23.171Z,100179.03
2023-05-21T00:39:58.300Z,100176.75
2023-05-21T00:42:41.418Z,100177.43
2023-05-21T00:45:16.384Z,100175.55
2023-05-21T00:47:49.278Z,100178.91
2023-05-21T00:50:19.747Z,100178.79
2023-05-21T00:52:55.516Z,100175.44
2023-05-21T00:58:19.913Z,100165.79
2023-05-21T01:00:51.402Z,100164.77
2023-05-21T01:03:23.466Z,100161.66
2023-05-21T01:06:00.125Z,100166.14
2023-05-21T01:08:34.271Z,100169.91
2023-05-21T01:11:06.034Z,100172.80
2023-05-21T01:13:42.421Z,100173.23
2023-05-21T01:16:13.679Z,100169.91
2023-05-21T01:18:48.076Z,100166.85
2023-05-21T01:21:26.040Z,100165.38
2023-05-21T01:23:58.517Z,100161.18
2023-05-21T01:26:33.830Z,100164.02
2023-05-21T01:29:04.670Z,100158.71
2023-05-21T01:32:02.811Z,100155.40
2023-05-21T01:35:11.368Z,100150.40
2023-05-21T01:37:59.030Z,100148.92
2023-05-21T01:40:39.495Z,100145.77
2023-05-21T01:43:21.315Z,100141.37
2023-05-21T01:45:59.980Z,100140.04
2023-05-21T01:48:30.088Z,100144.87
2023-05-21T01:51:04.735Z,100145.38
2023-05-21T01:53:33.551Z,100143.48
2023-05-21T01:56:21.442Z,100139.06
2023-05-21T01:58:56.859Z,100137.95
2023-05-21T02:01:25.382Z,100135.66
2023-05-21T02:03:53.655Z,100134.48
2023-05-21T02:06:24.795Z,100136.22
2023-05-21T02:08:59.782Z,100131.50
2023-05-21T02:11:29.851Z,100127.31
2023-05-21T02:14:03.958Z,100125.40
2023-05-21T02:16:35.902Z,100124.76
2023-05-21T02:19:13.607Z,100124.30
2023-05-21T02:21:47.383Z,100125.40
2023-05-21T02:24:19.329Z,100129.92
2023-05-21T02:26:50.610Z,100122.06
2023-05-21T02:29:18.764Z,100123.48
2023-05-21T02:31:46.784Z,100122.81
2023-05-21T02:36:59.598Z,100116.77
2023-05-21T02:39:30.056Z,100122.89
2023-05-21T02:41:58.269Z,100119.61
2023-05-21T02:44:28.713Z,100116.27
2023-05-21T02:47:00.176Z,100115.55
2023-05-21T02:49:29.292Z,100115.86
2023-05-21T02:51:59.820Z,100114.51
2023-05-21T02:54:31.745Z,100116.05
2023-05-21T02:57:02.318Z,100117.56
2023-05-21T02:59:42.111Z,100118.52
2023-05-21T03:02:13.576Z,100121.48
2023-05-21T03:04:51.825Z,100126.27
2023-05-21T03:07:47.718Z,100122.75
2023-05-21T03:10:23.294Z,100124.20
2023-05-21T03:12:55.668Z,100118.45
2023-05-21T03:15:33.756Z,100117.91
2023-05-21T03:18:05.765Z,100123.02
2023-05-21T03:20:37.135Z,100123.28
2023-05-21T03:23:07.985Z,100115.48
2023-05-21T03:25:49.335Z,100112.23
2023-05-21T03:28:23.265Z,100110.88
2023-05-21T03:30:58.871Z,100108.01
2023-05-21T03:33:39.842Z,100106.52
2023-05-21T03:36:36.388Z,100107.59
2023-05-21T03:39:09.850Z,100109.85
2023-05-21T03:41:38.220Z,100114.23
2023-05-21T03:44:20.065Z,100114.89
2023-05-21T03:46:55.807Z,100117.52
2023-05-21T03:49:33.180Z,100119.19
2023-05-21T03:52:04.288Z,100122.13
2023-05-21T03:54:40.287Z,100122.54
2023-05-21T03:57:18.702Z,100124.44
2023-05-21T03:59:48.043Z,100118.05
2023-05-21T04:02:17.755Z,100119.98
2023-05-21T04:08:02.591Z,100117.48
2023-05-21T04:10:33.264Z,100122.81
2023-05-21T04:13:10.414Z,100117.54
2023-05-21T04:15:42.728Z,100116.16
2023-05-21T04:18:28.078Z,100119.59
2023-05-21T04:21:13.516Z,100112.95
2023-05-21T04:24:00.959Z,100109.57
2023-05-21T04:26:55.475Z,100109.04
2023-05-21T04:29:27.472Z,100110.85
2023-05-21T04:32:02.900Z,100108.73
2023-05-21T04:34:35.331Z,100109.02
2023-05-21T04:37:03.625Z,100112.79
2023-05-21T04:39:32.234Z,100105.95
2023-05-21T04:42:02.227Z,100110.20
2023-05-21T04:44:35.728Z,100109.27
2023-05-21T04:47:13.134Z,100102.77
2023-05-21T04:49:53.741Z,100104.45
2023-05-21T04:52:25.127Z,100105.34
2023-05-21T04:54:59.129Z,100106.16
2023-05-21T04:57:37.569Z,100109.84
2023-05-21T05:00:07.654Z,100112.06
2023-05-21T05:02:53.259Z,100112.33
2023-05-21T05:06:04.763Z,100116.42
2023-05-21T05:08:38.998Z,100116.02
2023-05-21T05:11:07.538Z,100111.07
2023-05-21T05:13:43.142Z,100112.48
2023-05-21T05:16:16.794Z,100120.34
2023-05-21T05:18:49.899Z,100120.89
2023-05-21T05:21:34.711Z,100116.77
2023-05-21T05:24:04.514Z,100112.17
2023-05-21T05:26:33.522Z,100112.19
2023-05-21T05:29:02.213Z,100110.45
2023-05-21T05:31:30.640Z,100108.70
2023-05-21T05:34:05.685Z,100108.75
2023-05-21T05:36:40.328Z,100112.09
2023-05-21T05:43:50.784Z,100110.39
2023-05-21T05:45:59.187Z,100107.22
2023-05-21T05:51:41.632Z,100103.78
2023-05-21T05:55:06.013Z,100102.94
2023-05-21T05:57:45.279Z,100102.14
2023-05-21T06:00:20.271Z,100102.31
2023-05-21T06:02:49.521Z,100104.70
2023-05-21T06:05:23.913Z,100105.81
2023-05-21T06:07:53.496Z,100105.09
2023-05-21T06:10:26.647Z,100102.42
2023-05-21T06:13:06.804Z,100103.64
2023-05-21T06:15:44.140Z,100104.23
2023-05-21T06:18:23.702Z,100104.20
2023-05-21T06:20:54.359Z,100101.40
2023-05-21T06:23:29.390Z,100100.46
2023-05-21T06:26:00.830Z,100100.18
2023-05-21T06:28:29.379Z,100097.88
2023-05-21T06:30:57.785Z,100104.84
2023-05-21T06:33:27.773Z,100105.52
2023-05-21T06:35:56.221Z,100104.03
2023-05-21T06:38:25.364Z,100100.36
2023-05-21T06:40:53.943Z,100104.54
2023-05-21T06:43:43.848Z,100097.27
2023-05-21T06:46:42.915Z,100095.02
2023-05-21T06:49:15.541Z,100094.16
2023-05-21T06:52:00.087Z,100093.86
2023-05-21T06:54:28.436Z,100095.96
2023-05-21T06:57:07.602Z,100092.30
2023-05-21T06:59:53.494Z,100090.61
2023-05-21T07:02:37.005Z,100090.75
2023-05-21T07:05:38.429Z,100084.27
2023-05-21T07:08:20.236Z,100081.70
2023-05-21T07:11:03.737Z,100079.20
2023-05-21T07:16:22.171Z,100079.06
2023-05-21T07:19:33.089Z,100074.49
2023-05-21T07:27:44.954Z,100075.83
2023-05-21T07:31:21.457Z,100073.78
2023-05-21T07:34:13.227Z,100070.89
2023-05-21T07:37:49.793Z,100070.27
2023-05-21T07:45:38.132Z,100070.54
2023-05-21T07:48:52.345Z,100064.59
2023-05-21T07:51:37.251Z,100058.23
2023-05-21T07:54:34.687Z,100057.95
2023-05-21T07:57:24.386Z,100055.50
2023-05-21T08:00:10.565Z,100052.77
2023-05-21T08:02:48.405Z,100050.31
2023-05-21T08:05:29.741Z,100053.06
2023-05-21T08:08:54.668Z,100054.65
2023-05-21T08:11:53.739Z,100058.27
2023-05-21T08:14:27.252Z,100059.90
2023-05-21T08:17:15.201Z,100062.41
2023-05-21T08:56:24.876Z,100022.35
2023-05-21T09:03:24.478Z,100016.69
2023-05-21T09:06:05.038Z,100020.30
2023-05-21T09:09:02.474Z,100022.48
2023-05-21T09:18:26.380Z,100018.83
2023-05-21T09:28:25.054Z,100015.79
2023-05-21T09:29:52.508Z,100017.36
2023-05-21T09:33:05.019Z,100018.14
2023-05-21T09:35:36.082Z,100021.60
2023-05-21T09:38:52.508Z,100016.24
2023-05-21T09:42:55.686Z,100015.25
2023-05-21T09:46:46.622Z,100011.94
2023-05-21T09:49:31.493Z,100016.41
2023-05-21T09:57:02.441Z,100018.48
2023-05-21T10:00:02.487Z,100012.56
2023-05-21T10:02:33.213Z,100006.89
2023-05-21T10:05:08.761Z,100007.16
2023-05-21T10:07:55.525Z,100005.17
2023-05-21T10:10:55.714Z,100007.63
2023-05-21T10:14:05.608Z,100000.84
2023-05-21T10:17:09.401Z,99999.39
2023-05-21T10:19:51.998Z,99996.02
2023-05-21T10:22:25.324Z,99984.41
2023-05-21T10:36:59.197Z,99984.29
2023-05-21T10:39:40.084Z,99981.20
2023-05-21T10:42:50.661Z,99981.63
2023-05-21T10:55:23.056Z,99974.70
2023-05-21T10:59:06.854Z,99976.58
2023-05-21T11:00:22.774Z,99975.07
2023-05-21T11:02:24.150Z,99975.89
2023-05-21T11:05:38.205Z,99976.77
2023-05-21T11:09:00.610Z,99973.84
2023-05-21T11:12:35.251Z,99966.54
2023-05-21T11:15:07.153Z,99958.79
2023-05-21T11:18:04.975Z,99955.56
2023-05-21T11:21:14.634Z,99957.89
2023-05-21T11:23:51.680Z,99958.76
2023-05-21T11:27:09.435Z,99953.16
2023-05-21T11:29:58.808Z,99952.81
2023-05-21T11:32:32.870Z,99949.12
2023-05-21T11:35:50.297Z,99945.77
2023-05-21T11:38:48.192Z,99944.86
2023-05-21T11:41:30.199Z,99943.46
2023-05-21T11:44:35.977Z,99937.88
2023-05-21T11:47:26.314Z,99936.70
2023-05-21T11:54:46.813Z,99932.69
2023-05-21T12:01:06.064Z,99919.33
2023-05-21T12:03:49.511Z,99917.99
2023-05-21T12:06:33.993Z,99912.91
2023-05-21T12:09:28.105Z,99916.14
2023-05-21T12:12:15.335Z,99916.67
2023-05-21T12:15:01.517Z,99917.62
2023-05-21T12:17:42.209Z,99907.06
2023-05-21T12:20:44.679Z,99900.40
2023-05-21T12:23:27.175Z,99904.81
2023-05-21T12:26:07.827Z,99898.95
2023-05-21T12:28:41.108Z,99906.13
2023-05-21T12:31:25.953Z,99905.98
2023-05-21T12:33:55.415Z,99892.77
2023-05-21T12:36:28.478Z,99889.45
2023-05-21T12:39:05.826Z,99889.73
2023-05-21T12:41:53.231Z,99876.92
2023-05-21T12:44:37.106Z,99881.14
2023-05-21T12:47:08.866Z,99877.12
2023-05-21T12:49:47.424Z,99879.13
2023-05-21T12:52:19.297Z,99877.85
2023-05-21T12:54:56.675Z,99882.95
2023-05-21T12:57:40.742Z,99877.58
2023-05-21T13:03:07.406Z,99876.77
2023-05-21T13:05:40.717Z,99867.52
2023-05-21T13:08:18.383Z,99867.98
2023-05-21T13:10:51.965Z,99867.02
2023-05-21T13:13:22.512Z,99863.66
2023-05-21T13:15:52.127Z,99868.11
2023-05-21T13:18:24.850Z,99867.65
2023-05-21T13:21:01.984Z,99862.11
2023-05-21T13:23:36.515Z,99868.59
2023-05-21T13:26:10.360Z,99866.25
2023-05-21T13:28:50.180Z,99871.30
2023-05-21T13:31:24.262Z,99875.02
2023-05-21T13:33:55.340Z,99876.31
2023-05-21T13:36:54.097Z,99869.40
2023-05-21T13:39:30.964Z,99875.19
2023-05-21T13:42:17.794Z,99877.80
2023-05-21T13:44:55.403Z,99879.05
2023-05-21T13:47:29.865Z,99888.14
2023-05-21T13:50:03.495Z,99877.98
2023-05-21T13:52:32.244Z,99879.02
2023-05-21T13:55:10.543Z,99874.34
2023-05-21T13:57:38.884Z,99863.21
2023-05-21T14:00:16.441Z,99859.35
2023-05-21T14:02:51.362Z,99858.70
2023-05-21T14:05:26.190Z,99852.36
2023-05-21T14:07:55.955Z,99848.90
2023-05-21T14:10:26.621Z,99845.70
2023-05-21T14:12:59.210Z,99848.55
2023-05-21T14:15:36.490Z,99854.74
2023-05-21T14:18:10.751Z,99857.17
2023-05-21T14:20:45.218Z,99859.60
2023-05-21T14:23:14.554Z,99854.08
2023-05-21T14:25:50.884Z,99858.55
2023-05-21T14:28:32.946Z,99868.35
2023-05-21T14:31:01.121Z,99857.68
2023-05-21T14:33:44.243Z,99856.25
2023-05-21T14:36:12.706Z,99854.61
2023-05-21T14:38:54.407Z,99857.39
2023-05-21T14:41:31.998Z,99849.38
2023-05-21T14:44:21.262Z,99848.10
2023-05-21T14:46:54.462Z,99845.20
2023-05-21T14:49:40.458Z,99842.55
2023-05-21T14:52:12.542Z,99846.34
2023-05-21T14:54:58.280Z,99842.81
2023-05-21T14:57:29.854Z,99845.09
2023-05-21T15:00:13.375Z,99842.24
2023-05-21T15:02:46.040Z,99845.65
2023-05-21T15:05:16.352Z,99849.30
2023-05-21T15:07:51.152Z,99854.02
2023-05-21T15:10:40.059Z,99848.08
2023-05-21T15:13:13.682Z,99841.18
2023-05-21T15:15:47.942Z,99843.62
2023-05-21T15:18:20.758Z,99842.77
2023-05-21T15:21:01.065Z,99841.41
2023-05-21T15:23:36.439Z,99839.61
2023-05-21T15:26:08.308Z,99831.76
2023-05-21T15:28:36.732Z,99836.12
2023-05-21T15:31:25.991Z,99838.30
2023-05-21T15:34:00.731Z,99837.05
2023-05-21T15:36:44.148Z,99833.71
2023-05-21T15:39:53.459Z,99828.73
2023-05-21T15:42:37.276Z,99833.88
2023-05-21T15:45:23.410Z,99825.81
2023-05-21T15:48:02.328Z,99825.97
2023-05-21T15:51:01.477Z,99826.16
2023-05-21T15:53:29.772Z,99819.33
2023-05-21T15:56:08.404Z,99820.38
2023-05-21T15:58:53.293Z,99824.48
2023-05-21T16:01:29.675Z,99820.55
2023-05-21T16:04:14.126Z,99817.71
2023-05-21T16:06:45.285Z,99818.02
2023-05-21T16:09:22.378Z,99816.50
2023-05-21T16:11:50.763Z,99819.20
2023-05-21T16:14:26.080Z,99820.53
2023-05-21T16:16:55.937Z,99822.71
2023-05-21T16:19:28.436Z,99823.29
2023-05-21T16:22:05.166Z,99822.98
2023-05-21T16:24:41.225Z,99827.63
2023-05-21T16:27:11.466Z,99826.18
2023-05-21T16:29:54.484Z,99829.60
2023-05-21T16:35:12.284Z,99840.84
2023-05-21T16:37:42.804Z,99850.44
2023-05-21T16:40:13.889Z,99852.77
2023-05-21T16:42:59.472Z,99853.66
2023-05-21T16:45:39.258Z,99858.45
2023-05-21T16:48:34.679Z,99857.79
2023-05-21T16:51:32.890Z,99858.43
2023-05-21T16:54:02.915Z,99860.42
2023-05-21T16:56:31.393Z,99867.60
2023-05-21T16:59:05.537Z,99869.27
2023-05-21T17:02:00.800Z,99866.06
2023-05-21T17:04:33.550Z,99866.52
2023-05-21T17:07:01.986Z,99871.25
2023-05-21T17:09:30.221Z,99867.95
2023-05-21T17:11:58.516Z,99871.41
2023-05-21T17:14:37.649Z,99871.02
2023-05-21T17:17:10.347Z,99870.81
2023-05-21T17:19:40.114Z,99866.88
2023-05-21T17:22:12.281Z,99863.98
2023-05-21T17:25:37.962Z,99865.83
2023-05-21T17:28:32.589Z,99867.89
2023-05-21T17:31:13.951Z,99869.64
2023-05-21T17:33:58.173Z,99873.07
2023-05-21T17:36:55.049Z,99870.49
2023-05-21T17:40:50.198Z,99871.00
2023-05-21T17:43:55.964Z,99873.85
2023-05-21T17:51:30.002Z,99878.70
2023-05-21T18:05:04.327Z,99895.55
2023-05-21T18:08:32.527Z,99910.95
2023-05-21T18:11:03.185Z,99916.05
2023-05-21T18:13:32.499Z,99915.71
2023-05-21T18:16:36.709Z,99919.57
2023-05-21T18:19:13.332Z,99917.31
2023-05-21T18:21:57.816Z,99923.37
2023-05-21T18:24:26.158Z,99934.73
2023-05-21T18:26:56.495Z,99938.40
2023-05-21T18:29:30.384Z,99942.67
2023-05-21T18:31:58.709Z,99941.17
2023-05-21T18:34:32.747Z,99943.44
2023-05-21T18:37:02.623Z,99943.19
2023-05-21T18:40:30.551Z,99949.28
2023-05-21T18:43:11.022Z,99960.48
2023-05-21T18:45:42.209Z,99968.91
2023-05-21T18:48:16.239Z,99972.61
2023-05-21T18:50:44.455Z,99974.54
2023-05-21T18:53:12.709Z,99976.40
2023-05-21T18:55:42.393Z,99982.71
2023-05-21T18:58:26.386Z,99989.78
2023-05-21T19:00:54.724Z,99992.66
2023-05-21T19:03:22.928Z,99989.80
2023-05-21T19:05:51.146Z,99990.99
2023-05-21T19:08:19.187Z,99990.04
2023-05-21T19:10:47.131Z,99987.60
2023-05-21T19:13:16.007Z,99991.61
2023-05-21T19:15:47.230Z,99992.60
2023-05-21T19:18:17.369Z,99989.92
2023-05-21T19:20:45.436Z,99991.45
2023-05-21T19:23:14.115Z,99996.16
2023-05-21T19:25:42.641Z,99997.54
2023-05-21T19:28:11.017Z,100000.29
2023-05-21T19:30:39.425Z,99995.09
2023-05-21T19:33:09.907Z,99997.82
2023-05-21T19:35:42.068Z,99996.17
2023-05-21T19:38:20.058Z,99994.66
2023-05-21T19:40:49.203Z,99991.39
2023-05-21T19:43:17.352Z,99992.27
2023-05-21T19:45:46.113Z,99995.20
2023-05-21T19:48:18.674Z,99995.83
2023-05-21T19:50:46.785Z,99992.79
2023-05-21T19:53:16.936Z,99993.23
2023-05-21T19:55:46.012Z,99991.19
2023-05-21T19:58:16.946Z,99989.39
2023-05-21T20:00:47.499Z,99987.83
2023-05-21T20:03:17.294Z,99985.44
2023-05-21T20:05:46.628Z,99982.80
2023-05-21T20:08:14.985Z,99979.20
2023-05-21T20:10:47.599Z,99979.30
2023-05-21T20:13:16.933Z,99972.84
2023-05-21T20:15:45.656Z,99972.93
2023-05-21T20:18:17.249Z,99974.69
2023-05-21T20:20:48.090Z,99977.56
2023-05-21T20:23:16.501Z,99977.66
2023-05-21T20:25:44.709Z,99982.73
2023-05-21T20:28:12.836Z,99985.73
2023-05-21T20:31:02.762Z,99983.98
2023-05-21T20:33:32.604Z,99978.23
2023-05-21T20:36:01.665Z,99979.71
2023-05-21T20:38:33.253Z,99976.40
2023-05-21T20:41:01.450Z,99976.40
2023-05-21T20:43:31.878Z,99971.83
2023-05-21T20:46:00.610Z,99973.02
2023-05-21T20:48:29.776Z,99970.29
2023-05-21T20:51:03.475Z,99972.05
2023-05-21T20:53:32.204Z,99969.66
2023-05-21T20:56:01.669Z,99972.30
2023-05-21T20:58:29.919Z,99971.11
2023-05-21T21:00:58.262Z,99971.70
2023-05-21T21:03:29.665Z,99970.05
2023-05-21T21:05:59.684Z,99967.71
2023-05-21T21:08:28.110Z,99968.32
2023-05-21T21:10:56.423Z,99969.49
2023-05-21T21:13:24.534Z,99977.23
2023-05-21T21:15:52.856Z,99978.92
2023-05-21T21:18:21.040Z,99984.10
2023-05-21T21:20:49.979Z,99996.91
2023-05-21T21:23:21.979Z,100008.33
2023-05-21T21:25:55.503Z,100014.17
2023-05-21T21:28:46.626Z,100018.99
2023-05-21T21:31:35.505Z,100019.17
2023-05-21T21:34:03.760Z,100022.50
2023-05-21T21:36:39.255Z,100027.02
2023-05-21T21:39:07.392Z,100039.80
2023-05-21T21:41:40.966Z,100047.09
2023-05-21T21:44:25.086Z,100046.34
2023-05-21T21:46:53.628Z,100041.27
2023-05-21T21:49:51.216Z,100037.98
2023-05-21T21:52:26.795Z,100031.66
2023-05-21T21:54:56.158Z,100023.73
2023-05-21T21:57:31.452Z,100022.22
2023-05-21T21:59:59.739Z,100023.27
2023-05-21T22:02:28.209Z,100026.27
2023-05-21T22:04:56.581Z,100030.59
2023-05-21T22:07:24.844Z,100028.45
2023-05-21T22:09:53.149Z,100029.83
2023-05-21T22:12:22.662Z,100031.64
2023-05-21T22:14:51.149Z,100029.52
2023-05-21T22:17:22.205Z,100028.28
2023-05-21T22:19:51.142Z,100025.36
2023-05-21T22:22:19.354Z,100021.83
2023-05-21T22:24:47.631Z,100022.35
2023-05-21T22:27:15.860Z,100016.81
2023-05-21T22:29:44.322Z,100017.13
2023-05-21T22:32:12.936Z,100016.65
2023-05-21T22:34:43.819Z,100014.31
2023-05-21T22:37:12.782Z,100011.42
2023-05-21T22:39:46.007Z,100008.69
2023-05-21T22:42:14.581Z,100008.19
2023-05-21T22:44:45.417Z,100002.95
2023-05-21T22:47:16.455Z,100003.61
2023-05-21T22:49:45.544Z,100005.16
2023-05-21T22:52:14.729Z,100004.23
2023-05-21T22:54:45.303Z,100004.10
2023-05-21T22:57:14.157Z,100005.80
2023-05-21T22:59:42.541Z,100007.80
2023-05-21T23:02:11.906Z,100008.36
2023-05-21T23:04:44.404Z,100007.16
2023-05-21T23:07:16.899Z,100004.14
2023-05-21T23:09:45.373Z,100001.36
2023-05-21T23:12:29.240Z,99995.79
2023-05-21T23:15:07.854Z,99994.54
2023-05-21T23:17:38.402Z,99995.29
2023-05-21T23:20:08.923Z,99995.21
2023-05-21T23:22:37.675Z,99991.73
2023-05-21T23:25:06.488Z,99990.13
2023-05-21T23:27:35.133Z,99993.65
2023-05-21T23:30:06.582Z,99992.87
2023-05-21T23:32:34.873Z,99989.67
2023-05-21T23:35:03.215Z,99985.51
2023-05-21T23:37:32.256Z,99988.36
2023-05-21T23:40:01.631Z,99986.98
2023-05-21T23:42:35.522Z,99984.40
2023-05-21T23:45:08.313Z,99986.21
2023-05-21T23:47:39.263Z,99981.34
2023-05-21T23:50:20.820Z,99979.02
2023-05-21T23:52:49.237Z,99973.98
2023-05-21T23:55:20.598Z,99973.46
2023-05-21T23:57:57.950Z,99975.03
